Time;durP1;ratioP1;P1;durP2;ratioP2;P2;SDS_P1;SDS_P2;PMS_P1;PMS_P2;Temp;Humidity;BMP_temperature;BMP_pressure;BME280_temperature;BME280_humidity;BME280_pressure;Samples;Min_cycle;Max_cycle;Signal;HPM_P1;HPM_P2
2023/05/16 00:02:08;;;;;;;;;;;;;;;15.77;100.00;97494.38;5075758;28;19960;-73
2023/05/16 00:04:35;;;;;;;;;;;;;;;15.81;100.00;97489.19;5077781;28;19963;-73
2023/05/16 00:07:02;;;;;;;;;;;;;;;15.67;100.00;97483.84;5076246;28;19978;-73
2023/05/16 00:09:28;;;;;;;;;;;;;;;15.59;100.00;97479.22;5076086;28;19935;-73
2023/05/16 00:11:56;;;;;;;;;;;;;;;15.61;100.00;97483.19;5072951;28;19984;-72
2023/05/16 00:14:25;;;;;;;;;;;;;;;15.64;100.00;97485.25;5073234;28;19925;-72
2023/05/16 00:16:52;;;;;;;;;;;;;;;15.73;100.00;97487.22;5076473;28;19924;-73
2023/05/16 00:19:19;;;;;;;;;;;;;;;15.77;100.00;97480.91;5081226;28;19924;-73
2023/05/16 00:21:45;;;;;;;;;;;;;;;15.81;100.00;97473.03;5076878;28;19992;-72
2023/05/16 00:24:11;;;;;;;;;;;;;;;15.81;100.00;97478.41;5087611;28;19931;-72
2023/05/16 00:26:38;;;;;;;;;;;;;;;15.80;100.00;97476.81;5076951;28;19925;-72
2023/05/16 00:29:06;;;;;;;;;;;;;;;15.76;100.00;97475.81;5080802;28;20042;-72
2023/05/16 00:31:32;;;;;;;;;;;;;;;15.79;100.00;97480.59;5079865;28;20005;-72
2023/05/16 00:33:59;;;;;;;;;;;;;;;15.79;100.00;97473.31;5072530;28;19931;-72
2023/05/16 00:36:25;;;;;;;;;;;;;;;15.83;100.00;97476.19;5071455;28;20417;-72
2023/05/16 00:38:51;;;;;;;;;;;;;;;15.80;100.00;97466.03;5076799;28;19920;-72
2023/05/16 00:41:18;;;;;;;;;;;;;;;15.78;100.00;97473.66;5073945;28;19924;-73
2023/05/16 00:43:44;;;;;;;;;;;;;;;15.76;100.00;97471.25;5072579;28;19955;-72
2023/05/16 00:46:12;;;;;;;;;;;;;;;15.75;100.00;97480.44;5074111;28;19980;-72
2023/05/16 00:48:39;;;;;;;;;;;;;;;15.73;100.00;97471.06;5077201;28;19963;-72
2023/05/16 00:51:08;;;;;;;;;;;;;;;15.74;100.00;97470.75;5075841;28;19967;-72
2023/05/16 00:53:34;;;;;;;;;;;;;;;15.57;100.00;97468.72;5074319;28;19924;-72
2023/05/16 00:56:01;;;;;;;;;;;;;;;15.35;100.00;97474.06;5072564;28;20034;-73
2023/05/16 00:58:31;;;;;;;;;;;;;;;15.48;100.00;97465.19;5079959;28;19925;-73
2023/05/16 01:00:57;;;;;;;;;;;;;;;15.50;100.00;97468.38;5074076;28;19984;-73
2023/05/16 01:03:26;;;;;;;;;;;;;;;15.55;100.00;97464.75;5074478;28;19987;-73
2023/05/16 01:05:52;;;;;;;;;;;;;;;15.58;100.00;97456.06;5078532;28;20417;-73
2023/05/16 01:08:19;;;;;;;;;;;;;;;15.59;100.00;97460.38;5073487;28;19925;-73
2023/05/16 01:10:50;;;;;;;;;;;;;;;15.57;100.00;97455.28;5075897;28;19925;-73
2023/05/16 01:13:22;;;;;;;;;;;;;;;15.57;100.00;97460.66;5080409;28;19940;-73
2023/05/16 01:15:50;;;;;;;;;;;;;;;15.57;100.00;97463.34;5077590;28;19928;-73
2023/05/16 01:18:22;;;;;;;;;;;;;;;15.56;100.00;97469.84;5075779;28;19945;-73
2023/05/16 01:20:54;;;;;;;;;;;;;;;15.56;100.00;97466.38;5075619;28;19983;-73
2023/05/16 01:23:27;;;;;;;;;;;;;;;15.57;100.00;97462.56;5079582;28;19925;-73
2023/05/16 01:25:59;;;;;;;;;;;;;;;15.55;100.00;97457.50;5075475;28;19924;-73
2023/05/16 01:28:28;;;;;;;;;;;;;;;15.53;100.00;97451.63;5072803;28;19929;-73
2023/05/16 01:30:54;;;;;;;;;;;;;;;15.55;100.00;97452.09;5071371;28;20497;-73
2023/05/16 01:33:20;;;;;;;;;;;;;;;15.54;100.00;97452.41;5072709;28;20015;-73
2023/05/16 01:35:53;;;;;;;;;;;;;;;15.53;100.00;97457.00;5087605;28;20026;-74
2023/05/16 01:38:24;;;;;;;;;;;;;;;15.52;100.00;97454.59;5072395;28;19960;-73
2023/05/16 01:40:53;;;;;;;;;;;;;;;15.50;100.00;97452.25;5071853;28;19931;-73
2023/05/16 01:43:21;;;;;;;;;;;;;;;15.48;100.00;97459.00;5075777;28;19964;-74
2023/05/16 01:45:51;;;;;;;;;;;;;;;15.47;100.00;97454.72;5078993;28;20245;-72
2023/05/16 01:48:21;;;;;;;;;;;;;;;15.52;100.00;97457.28;5078033;28;19935;-72
2023/05/16 01:50:52;;;;;;;;;;;;;;;15.43;100.00;97451.81;5071621;28;19936;-72
2023/05/16 01:53:20;;;;;;;;;;;;;;;15.35;100.00;97451.75;5078404;28;19924;-72
2023/05/16 01:55:47;;;;;;;;;;;;;;;15.40;100.00;97459.72;5078897;28;19924;-72
2023/05/16 01:58:15;;;;;;;;;;;;;;;15.43;100.00;97448.34;5077759;28;19929;-72
2023/05/16 02:00:41;;;;;;;;;;;;;;;15.44;100.00;97448.03;5085345;28;19975;-73
2023/05/16 02:03:09;;;;;;;;;;;;;;;15.44;100.00;97452.63;5075533;28;19928;-72
2023/05/16 02:05:35;;;;;;;;;;;;;;;15.40;100.00;97451.63;5095990;28;19970;-72
2023/05/16 02:08:02;;;;;;;;;;;;;;;15.37;100.00;97457.63;5077114;28;19967;-73
2023/05/16 02:10:29;;;;;;;;;;;;;;;15.21;100.00;97459.06;5078348;28;19984;-73
2023/05/16 02:12:55;;;;;;;;;;;;;;;15.21;100.00;97454.50;5078711;28;19998;-73
2023/05/16 02:15:21;;;;;;;;;;;;;;;15.03;100.00;97455.44;5078099;28;19924;-73
2023/05/16 02:17:48;;;;;;;;;;;;;;;14.86;100.00;97455.25;5079066;28;20007;-73
2023/05/16 02:20:16;;;;;;;;;;;;;;;14.72;100.00;97451.81;5078656;28;19936;-73
2023/05/16 02:22:43;;;;;;;;;;;;;;;14.53;100.00;97454.59;5073657;28;19925;-73
2023/05/16 02:25:10;;;;;;;;;;;;;;;14.62;100.00;97457.38;5072741;28;19925;-73
2023/05/16 02:27:36;;;;;;;;;;;;;;;14.76;100.00;97458.16;5074942;28;19924;-73
2023/05/16 02:30:04;;;;;;;;;;;;;;;14.78;100.00;97450.59;5077535;28;19925;-73
2023/05/16 02:32:31;;;;;;;;;;;;;;;14.66;100.00;97453.81;5078387;28;20473;-73
2023/05/16 02:34:57;;;;;;;;;;;;;;;14.93;100.00;97455.66;5078406;28;19932;-73
2023/05/16 02:37:25;;;;;;;;;;;;;;;14.92;100.00;97446.78;5077874;28;19932;-73
2023/05/16 02:39:51;;;;;;;;;;;;;;;14.99;100.00;97452.56;5079387;28;19975;-73
2023/05/16 02:42:18;;;;;;;;;;;;;;;15.09;100.00;97452.34;5078123;28;19924;-73
2023/05/16 02:44:44;;;;;;;;;;;;;;;15.14;100.00;97454.91;5074421;28;19975;-73
2023/05/16 02:47:10;;;;;;;;;;;;;;;15.20;100.00;97457.47;5070687;28;19936;-73
2023/05/16 02:49:37;;;;;;;;;;;;;;;15.23;100.00;97464.94;5077862;28;19928;-73
2023/05/16 02:52:06;;;;;;;;;;;;;;;15.25;100.00;97454.69;5075740;28;20244;-73
2023/05/16 02:54:34;;;;;;;;;;;;;;;15.27;100.00;97457.84;5081772;28;19925;-73
2023/05/16 02:57:00;;;;;;;;;;;;;;;15.16;100.00;97456.50;5076325;28;20004;-73
2023/05/16 02:59:27;;;;;;;;;;;;;;;15.21;100.00;97461.75;5070873;28;19921;-73
2023/05/16 03:01:53;;;;;;;;;;;;;;;15.23;100.00;97459.53;5075752;28;20091;-73
2023/05/16 03:04:19;;;;;;;;;;;;;;;15.25;100.00;97466.25;5077468;28;19928;-73
2023/05/16 03:06:46;;;;;;;;;;;;;;;15.25;100.00;97476.19;5077361;28;19935;-73
2023/05/16 03:09:12;;;;;;;;;;;;;;;15.26;100.00;97469.69;5074829;28;19964;-73
2023/05/16 03:11:40;;;;;;;;;;;;;;;15.27;100.00;97476.69;5083173;28;19932;-73
2023/05/16 03:14:07;;;;;;;;;;;;;;;15.27;100.00;97484.75;5085104;28;19951;-73
2023/05/16 03:16:35;;;;;;;;;;;;;;;15.19;100.00;97482.78;5077858;28;19988;-73
2023/05/16 03:19:02;;;;;;;;;;;;;;;14.96;100.00;97485.41;5079590;28;19992;-73
2023/05/16 03:21:28;;;;;;;;;;;;;;;14.98;100.00;97488.59;5077852;28;19947;-73
2023/05/16 03:23:54;;;;;;;;;;;;;;;15.05;100.00;97482.81;5077168;28;19991;-73
2023/05/16 03:26:21;;;;;;;;;;;;;;;14.84;100.00;97487.03;5081009;28;20051;-73
2023/05/16 03:28:50;;;;;;;;;;;;;;;14.69;100.00;97476.59;5079096;28;19924;-73
2023/05/16 03:31:16;;;;;;;;;;;;;;;14.73;100.00;97491.03;5080944;28;19924;-73
2023/05/16 03:33:43;;;;;;;;;;;;;;;14.48;100.00;97489.63;5072495;28;19925;-73
2023/05/16 03:36:09;;;;;;;;;;;;;;;14.52;100.00;97483.34;5074068;28;19963;-73
2023/05/16 03:38:36;;;;;;;;;;;;;;;14.64;100.00;97485.53;5084600;28;19920;-73
2023/05/16 03:41:02;;;;;;;;;;;;;;;14.46;100.00;97491.81;5070876;28;19928;-73
2023/05/16 03:43:29;;;;;;;;;;;;;;;14.36;100.00;97492.00;5072077;28;19967;-72
2023/05/16 03:45:57;;;;;;;;;;;;;;;14.22;100.00;97488.47;5076373;28;20613;-72
2023/05/16 03:48:23;;;;;;;;;;;;;;;13.96;100.00;97488.91;5080288;28;19969;-72
2023/05/16 03:50:50;;;;;;;;;;;;;;;13.98;100.00;97497.47;5076771;28;19928;-72
2023/05/16 03:53:16;;;;;;;;;;;;;;;13.78;100.00;97500.50;5074652;28;19931;-72
2023/05/16 03:55:43;;;;;;;;;;;;;;;13.99;100.00;97503.63;5072346;28;20444;-72
2023/05/16 03:58:09;;;;;;;;;;;;;;;14.31;100.00;97495.53;5075170;28;19929;-72
2023/05/16 04:00:36;;;;;;;;;;;;;;;14.37;100.00;97505.13;5085564;28;19925;-73
2023/05/16 04:03:04;;;;;;;;;;;;;;;14.50;100.00;97506.25;5072129;28;19932;-72
2023/05/16 04:05:31;;;;;;;;;;;;;;;14.35;100.00;97498.47;5073237;28;19935;-72
2023/05/16 04:07:57;;;;;;;;;;;;;;;14.28;100.00;97500.72;5074886;28;19932;-73
2023/05/16 04:10:23;;;;;;;;;;;;;;;14.45;100.00;97500.97;5072546;28;19955;-72
2023/05/16 04:12:50;;;;;;;;;;;;;;;14.65;100.00;97500.56;5076003;28;19932;-72
2023/05/16 04:15:17;;;;;;;;;;;;;;;14.43;100.00;97487.03;5073378;28;19924;-72
2023/05/16 04:17:43;;;;;;;;;;;;;;;14.50;100.00;97498.19;5078311;28;19935;-72
2023/05/16 04:20:12;;;;;;;;;;;;;;;14.64;100.00;97488.22;5075817;28;19929;-72
2023/05/16 04:22:38;;;;;;;;;;;;;;;14.78;100.00;97494.41;5076051;28;19924;-72
2023/05/16 04:25:05;;;;;;;;;;;;;;;14.88;100.00;97488.03;5070626;28;19931;-72
2023/05/16 04:27:32;;;;;;;;;;;;;;;14.91;100.00;97487.44;5071203;28;19921;-72
2023/05/16 04:29:59;;;;;;;;;;;;;;;14.70;100.00;97487.03;5084629;28;19925;-72
2023/05/16 04:32:27;;;;;;;;;;;;;;;14.46;100.00;97478.38;5074787;28;19947;-72
2023/05/16 04:34:54;;;;;;;;;;;;;;;14.34;100.00;97488.81;5075840;28;19924;-72
2023/05/16 04:37:21;;;;;;;;;;;;;;;14.37;100.00;97491.69;5073299;28;19935;-72
2023/05/16 04:39:48;;;;;;;;;;;;;;;14.20;100.00;97487.97;5076645;28;19929;-73
2023/05/16 04:42:15;;;;;;;;;;;;;;;14.14;100.00;97499.91;5075037;28;19944;-73
2023/05/16 04:44:42;;;;;;;;;;;;;;;14.16;100.00;97503.88;5074908;28;19924;-72
2023/05/16 04:47:09;;;;;;;;;;;;;;;14.02;100.00;97503.84;5070038;28;19925;-72
2023/05/16 04:49:35;;;;;;;;;;;;;;;13.82;100.00;97506.06;5071470;28;19925;-72
2023/05/16 04:52:02;;;;;;;;;;;;;;;13.57;100.00;97501.91;5073215;28;19955;-72
2023/05/16 04:54:30;;;;;;;;;;;;;;;13.51;100.00;97513.78;5069080;28;19931;-72
2023/05/16 04:56:56;;;;;;;;;;;;;;;13.83;100.00;97499.63;5077029;28;19928;-72
2023/05/16 04:59:22;;;;;;;;;;;;;;;13.84;100.00;97498.50;5080314;28;19920;-72
2023/05/16 05:01:49;;;;;;;;;;;;;;;13.46;100.00;97505.84;5075017;28;20349;-72
2023/05/16 05:04:16;;;;;;;;;;;;;;;13.34;100.00;97500.88;5075803;28;19928;-72
2023/05/16 05:06:43;;;;;;;;;;;;;;;13.50;100.00;97512.19;5072390;28;19925;-72
2023/05/16 05:09:09;;;;;;;;;;;;;;;13.73;100.00;97502.47;5067252;28;19931;-72
2023/05/16 05:11:37;;;;;;;;;;;;;;;13.74;100.00;97507.53;5070838;28;20335;-72
2023/05/16 05:14:04;;;;;;;;;;;;;;;13.68;100.00;97503.31;5074517;28;19950;-72
2023/05/16 05:16:30;;;;;;;;;;;;;;;13.79;100.00;97503.97;5075506;28;19929;-73
2023/05/16 05:18:57;;;;;;;;;;;;;;;13.33;100.00;97502.00;5076803;28;19948;-72
2023/05/16 05:21:24;;;;;;;;;;;;;;;13.82;100.00;97506.06;5073761;28;19931;-73
2023/05/16 05:23:50;;;;;;;;;;;;;;;14.02;100.00;97503.84;5075937;28;19925;-71
2023/05/16 05:26:17;;;;;;;;;;;;;;;14.25;100.00;97501.31;5074435;28;19920;-71
2023/05/16 05:28:44;;;;;;;;;;;;;;;14.54;100.00;97504.56;5072643;28;20497;-71
2023/05/16 05:31:11;;;;;;;;;;;;;;;14.66;100.00;97507.56;5072404;28;20015;-72
2023/05/16 05:33:37;;;;;;;;;;;;;;;14.73;100.00;97513.31;5071688;28;19924;-72
2023/05/16 05:36:04;;;;;;;;;;;;;;;14.48;100.00;97506.53;5073993;28;19960;-72
2023/05/16 05:38:30;;;;;;;;;;;;;;;14.52;100.00;97507.53;5076015;28;19921;-72
2023/05/16 05:40:57;;;;;;;;;;;;;;;14.56;100.00;97497.00;5077720;28;19928;-72
2023/05/16 05:43:23;;;;;;;;;;;;;;;14.60;100.00;97506.06;5075683;28;19996;-72
2023/05/16 05:45:52;;;;;;;;;;;;;;;14.67;100.00;97502.97;5075058;28;19928;-72
2023/05/16 05:48:19;;;;;;;;;;;;;;;14.86;100.00;97501.75;5074986;28;19936;-72
2023/05/16 05:50:45;;;;;;;;;;;;;;;14.92;100.00;97497.88;5074930;28;19924;-72
2023/05/16 05:53:12;;;;;;;;;;;;;;;15.07;100.00;97497.53;5070651;28;19924;-72
2023/05/16 05:55:40;;;;;;;;;;;;;;;14.92;100.00;97492.47;5080196;28;19985;-72
2023/05/16 05:58:07;;;;;;;;;;;;;;;14.79;100.00;97495.22;5073347;28;19931;-72
2023/05/16 06:00:33;;;;;;;;;;;;;;;14.63;100.00;97491.22;5083512;28;19924;-71
2023/05/16 06:03:01;;;;;;;;;;;;;;;14.51;100.00;97492.50;5069967;28;19928;-72
2023/05/16 06:05:27;;;;;;;;;;;;;;;14.32;100.00;97496.34;5071512;28;19921;-72
2023/05/16 06:07:54;;;;;;;;;;;;;;;14.57;100.00;97499.41;5074889;28;19936;-72
2023/05/16 06:10:20;;;;;;;;;;;;;;;14.66;100.00;97502.19;5075056;28;19963;-72
2023/05/16 06:12:47;;;;;;;;;;;;;;;14.63;100.00;97497.41;5072124;28;19932;-72
2023/05/16 06:15:13;;;;;;;;;;;;;;;14.89;100.00;97501.16;5067656;28;19928;-72
2023/05/16 06:17:40;;;;;;;;;;;;;;;15.12;100.00;97496.66;5069164;28;19925;-72
2023/05/16 06:20:09;;;;;;;;;;;;;;;15.35;100.00;97492.13;5075188;28;19935;-72
2023/05/16 06:22:36;;;;;;;;;;;;;;;15.47;100.00;97490.50;5086725;28;19921;-72
2023/05/16 06:25:02;;;;;;;;;;;;;;;15.73;100.00;97489.91;5073805;28;20000;-72
2023/05/16 06:27:29;;;;;;;;;;;;;;;15.90;100.00;97481.97;5075311;28;19935;-73
2023/05/16 06:29:55;;;;;;;;;;;;;;;15.99;100.00;97472.84;5077379;28;19988;-71
2023/05/16 06:32:22;;;;;;;;;;;;;;;16.12;100.00;97474.63;5081406;28;19940;-73
2023/05/16 06:34:48;;;;;;;;;;;;;;;16.27;100.00;97478.03;5077630;28;19932;-73
2023/05/16 06:37:16;;;;;;;;;;;;;;;16.33;100.00;97476.81;5075801;28;19995;-73
2023/05/16 06:39:43;;;;;;;;;;;;;;;16.29;100.00;97473.94;5074207;28;19925;-73
2023/05/16 06:42:09;;;;;;;;;;;;;;;16.37;100.00;97481.25;5077941;28;20477;-73
2023/05/16 06:44:36;;;;;;;;;;;;;;;16.40;100.00;97485.25;5076322;28;20394;-72
2023/05/16 06:47:02;;;;;;;;;;;;;;;16.43;100.00;97490.00;5081253;28;20027;-73
2023/05/16 06:49:29;;;;;;;;;;;;;;;16.37;100.00;97485.88;5074508;28;19925;-73
2023/05/16 06:51:55;;;;;;;;;;;;;;;16.39;100.00;97494.44;5077337;28;19929;-73
2023/05/16 06:54:23;;;;;;;;;;;;;;;16.41;100.00;97484.13;5077500;28;19929;-73
2023/05/16 06:56:49;;;;;;;;;;;;;;;16.23;100.00;97485.94;5076983;28;19924;-72
2023/05/16 06:59:16;;;;;;;;;;;;;;;16.23;100.00;97485.94;5073058;28;20046;-72
2023/05/16 07:01:42;;;;;;;;;;;;;;;16.22;100.00;97484.34;5071528;28;20030;-73
2023/05/16 07:04:08;;;;;;;;;;;;;;;16.19;100.00;97484.97;5084591;28;19968;-72
2023/05/16 07:06:35;;;;;;;;;;;;;;;16.27;100.00;97488.81;5077535;28;19956;-72
2023/05/16 07:09:01;;;;;;;;;;;;;;;16.39;100.00;97492.53;5072921;28;19928;-72
2023/05/16 07:11:29;;;;;;;;;;;;;;;16.60;100.00;97484.72;5075357;28;19920;-72
2023/05/16 07:13:57;;;;;;;;;;;;;;;16.68;100.00;97482.03;5075939;28;19967;-72
2023/05/16 07:16:23;;;;;;;;;;;;;;;16.52;100.00;97491.66;5072378;28;19956;-72
2023/05/16 07:18:50;;;;;;;;;;;;;;;16.33;100.00;97490.28;5074273;28;19935;-72
2023/05/16 07:21:16;;;;;;;;;;;;;;;16.53;100.00;97495.09;5082461;28;19927;-74
2023/05/16 07:23:43;;;;;;;;;;;;;;;16.65;100.00;97487.25;5072157;28;19925;-73
2023/05/16 07:26:10;;;;;;;;;;;;;;;16.55;100.00;97498.34;5084320;28;19936;-74
2023/05/16 07:28:36;;;;;;;;;;;;;;;16.62;100.00;97502.16;5076341;28;19925;-72
2023/05/16 07:31:05;;;;;;;;;;;;;;;16.75;100.00;97495.06;5078957;28;19925;-72
2023/05/16 07:33:32;;;;;;;;;;;;;;;16.70;100.00;97490.63;5073481;28;19935;-72
2023/05/16 07:35:58;;;;;;;;;;;;;;;16.80;100.00;97488.75;5076739;28;19925;-72
2023/05/16 07:38:25;;;;;;;;;;;;;;;16.82;100.00;97481.94;5076531;28;19956;-70
2023/05/16 07:40:51;;;;;;;;;;;;;;;16.83;100.00;97482.72;5074094;28;19925;-70
2023/05/16 07:43:18;;;;;;;;;;;;;;;16.77;100.00;97479.38;5069065;28;19952;-70
2023/05/16 07:45:44;;;;;;;;;;;;;;;16.69;100.00;97480.13;5071269;28;19925;-70
2023/05/16 07:48:12;;;;;;;;;;;;;;;16.48;100.00;97476.38;5082472;28;19928;-69
2023/05/16 07:50:38;;;;;;;;;;;;;;;16.66;100.00;97476.16;5076001;28;19924;-70
2023/05/16 07:53:05;;;;;;;;;;;;;;;16.89;100.00;97487.66;5070816;28;20570;-70
2023/05/16 07:55:31;;;;;;;;;;;;;;;16.96;100.00;97493.38;5077531;28;19925;-69
2023/05/16 07:57:57;;;;;;;;;;;;;;;16.91;100.00;97493.53;5076956;28;19971;-69
2023/05/16 08:00:24;;;;;;;;;;;;;;;16.84;100.00;97490.50;5077550;28;19952;-69
2023/05/16 08:02:50;;;;;;;;;;;;;;;16.89;100.00;97493.06;5076745;28;19956;-69
2023/05/16 08:05:18;;;;;;;;;;;;;;;16.99;100.00;97497.38;5075133;28;19920;-70
2023/05/16 08:07:45;;;;;;;;;;;;;;;16.95;100.00;97493.72;5077845;28;19984;-70
2023/05/16 08:10:11;;;;;;;;;;;;;;;17.07;100.00;97481.19;5076081;28;20690;-70
2023/05/16 08:12:38;;;;;;;;;;;;;;;17.05;100.00;97486.09;5075642;28;19936;-72
2023/05/16 08:15:05;;;;;;;;;;;;;;;16.96;100.00;97482.59;5070107;28;19925;-72
2023/05/16 08:17:31;;;;;;;;;;;;;;;16.87;100.00;97484.47;5071271;28;20071;-72
2023/05/16 08:19:58;;;;;;;;;;;;;;;16.99;100.00;97487.34;5074621;28;19967;-71
2023/05/16 08:22:25;;;;;;;;;;;;;;;17.08;100.00;97487.41;5075489;28;19944;-71
2023/05/16 08:24:53;;;;;;;;;;;;;;;17.15;100.00;97485.81;5075616;28;19932;-72
2023/05/16 08:27:19;;;;;;;;;;;;;;;17.29;100.00;97485.66;5074463;28;19947;-72
2023/05/16 08:29:45;;;;;;;;;;;;;;;17.40;100.00;97491.53;5078471;28;19924;-72
2023/05/16 08:32:12;;;;;;;;;;;;;;;17.31;100.00;97488.84;5074658;28;19964;-72
2023/05/16 08:34:38;;;;;;;;;;;;;;;17.41;100.00;97498.53;5071769;28;19924;-73
2023/05/16 08:37:05;;;;;;;;;;;;;;;17.46;100.00;97495.66;5079340;28;19932;-72
2023/05/16 08:39:33;;;;;;;;;;;;;;;17.34;100.00;97493.59;5072836;28;19925;-72
2023/05/16 08:42:00;;;;;;;;;;;;;;;17.51;100.00;97498.22;5075027;28;19986;-72
2023/05/16 08:44:26;;;;;;;;;;;;;;;17.66;100.00;97493.19;5078591;28;19986;-72
2023/05/16 08:46:53;;;;;;;;;;;;;;;17.63;100.00;97493.03;5075072;28;19920;-72
2023/05/16 08:49:20;;;;;;;;;;;;;;;17.75;100.00;97477.75;5072473;28;19928;-72
2023/05/16 08:51:47;;;;;;;;;;;;;;;17.81;100.00;97486.50;5075219;28;19929;-73
2023/05/16 08:54:14;;;;;;;;;;;;;;;18.02;100.00;97487.41;5074894;28;19928;-73
2023/05/16 08:56:44;;;;;;;;;;;;;;;18.12;100.00;97491.69;5074785;28;19947;-71
2023/05/16 08:59:11;;;;;;;;;;;;;;;18.17;100.00;97489.59;5069319;28;20004;-71
2023/05/16 09:01:38;;;;;;;;;;;;;;;18.24;100.00;97484.50;5071303;28;19924;-72
2023/05/16 09:04:06;;;;;;;;;;;;;;;18.36;100.00;97475.72;5073524;28;19925;-72
2023/05/16 09:06:33;;;;;;;;;;;;;;;18.52;100.00;97468.69;5074908;28;19927;-72
2023/05/16 09:08:59;;;;;;;;;;;;;;;18.56;100.00;97475.03;5074775;28;20169;-72
2023/05/16 09:11:25;;;;;;;;;;;;;;;18.50;100.00;97476.34;5074173;28;19959;-73
2023/05/16 09:13:53;;;;;;;;;;;;;;;18.52;100.00;97470.59;5070554;28;20013;-73
2023/05/16 09:16:20;;;;;;;;;;;;;;;18.55;100.00;97472.66;5080075;28;19924;-72
2023/05/16 09:18:52;;;;;;;;;;;;;;;18.42;100.00;97473.59;5074518;28;19932;-72
2023/05/16 09:21:19;;;;;;;;;;;;;;;18.47;100.00;97468.03;5071805;28;19988;-72
2023/05/16 09:23:48;;;;;;;;;;;;;;;18.56;100.00;97468.84;5070510;28;19936;-72
2023/05/16 09:26:15;;;;;;;;;;;;;;;18.56;100.00;97468.84;5072100;28;20413;-72
2023/05/16 09:28:42;;;;;;;;;;;;;;;18.47;100.00;97468.03;5075917;28;20314;-72
2023/05/16 09:31:21;;;;;;;;;;;;;;;18.47;100.00;97476.16;5076196;28;19927;-73
2023/05/16 09:33:48;;;;;;;;;;;;;;;18.41;100.00;97466.63;5073915;28;19956;-72
2023/05/16 09:36:15;;;;;;;;;;;;;;;18.44;100.00;97461.38;5072377;28;19924;-72
2023/05/16 09:38:41;;;;;;;;;;;;;;;18.39;100.00;97466.94;5076734;28;20307;-72
2023/05/16 09:41:09;;;;;;;;;;;;;;;18.41;100.00;97453.13;5073938;28;19964;-72
2023/05/16 09:43:38;;;;;;;;;;;;;;;18.31;100.00;97455.06;5074158;28;19930;-72
2023/05/16 09:46:04;;;;;;;;;;;;;;;18.08;100.00;97467.19;5068543;28;19924;-72
2023/05/16 09:48:33;;;;;;;;;;;;;;;18.13;100.00;97458.94;5071468;28;19964;-72
2023/05/16 09:51:02;;;;;;;;;;;;;;;18.05;100.00;97459.75;5075203;28;19984;-72
2023/05/16 09:53:29;;;;;;;;;;;;;;;17.96;100.00;97466.28;5074879;28;19924;-71
2023/05/16 09:56:02;;;;;;;;;;;;;;;17.68;100.00;97468.53;5078006;28;19932;-72
2023/05/16 09:58:30;;;;;;;;;;;;;;;17.49;100.00;97476.13;5078175;28;19935;-71
2023/05/16 10:00:57;;;;;;;;;;;;;;;17.47;100.00;97465.66;5079610;28;19928;-71
2023/05/16 10:03:23;;;;;;;;;;;;;;;17.43;100.00;97466.63;5078440;28;19925;-72
2023/05/16 10:05:51;;;;;;;;;;;;;;;17.45;100.00;97467.91;5078072;28;19935;-72
2023/05/16 10:08:20;;;;;;;;;;;;;;;17.43;100.00;97458.50;5074236;28;19936;-72
2023/05/16 10:10:50;;;;;;;;;;;;;;;17.39;100.00;97466.47;5073903;28;20050;-72
2023/05/16 10:13:17;;;;;;;;;;;;;;;16.99;100.00;97460.38;5075613;28;19928;-72
2023/05/16 10:15:45;;;;;;;;;;;;;;;16.76;100.00;97464.31;5077808;28;19951;-72
2023/05/16 10:18:13;;;;;;;;;;;;;;;16.41;100.00;97476.03;5082553;28;19921;-71
2023/05/16 10:20:41;;;;;;;;;;;;;;;15.91;100.00;97473.56;5077307;28;19967;-71
2023/05/16 10:23:10;;;;;;;;;;;;;;;15.67;100.00;97473.09;5078283;28;19947;-71
2023/05/16 10:25:38;;;;;;;;;;;;;;;15.44;100.00;97479.53;5080220;28;19936;-71
2023/05/16 10:28:06;;;;;;;;;;;;;;;15.49;100.00;97487.50;5078093;28;19929;-71
2023/05/16 10:30:33;;;;;;;;;;;;;;;15.87;100.00;97482.56;5083622;28;19966;-72
2023/05/16 10:33:01;;;;;;;;;;;;;;;15.88;100.00;97468.78;5074201;28;19995;-71
2023/05/16 10:35:27;;;;;;;;;;;;;;;15.95;100.00;97482.63;5074243;28;19925;-71
2023/05/16 10:37:54;;;;;;;;;;;;;;;16.06;100.00;97481.25;5077956;28;19924;-71
2023/05/16 10:40:23;;;;;;;;;;;;;;;15.99;100.00;97475.53;5084213;28;19925;-71
2023/05/16 10:42:55;;;;;;;;;;;;;;;16.35;100.00;97472.69;5078233;28;19956;-71
2023/05/16 10:45:22;;;;;;;;;;;;;;;16.39;100.00;97473.66;5080208;28;19926;-71
2023/05/16 10:47:52;;;;;;;;;;;;;;;16.35;100.00;97478.06;5077084;28;19933;-71
2023/05/16 10:50:30;;;;;;;;;;;;;;;16.21;100.00;97490.84;5077271;28;19925;-71
2023/05/16 10:53:10;;;;;;;;;;;;;;;16.34;100.00;97487.25;5076764;28;19963;-71
2023/05/16 10:55:39;;;;;;;;;;;;;;;16.42;100.00;97497.31;5075506;28;19982;-71
2023/05/16 10:58:06;;;;;;;;;;;;;;;16.51;100.00;97508.91;5074474;28;19924;-71
2023/05/16 11:00:32;;;;;;;;;;;;;;;16.65;100.00;97508.81;5073142;28;19920;-71
2023/05/16 11:03:04;;;;;;;;;;;;;;;16.66;100.00;97513.13;5085340;28;19970;-71
2023/05/16 11:05:31;;;;;;;;;;;;;;;16.73;100.00;97516.16;5075467;28;19921;-71
2023/05/16 11:08:03;;;;;;;;;;;;;;;16.70;100.00;97516.78;5071520;28;19924;-71
2023/05/16 11:10:29;;;;;;;;;;;;;;;16.76;100.00;97512.84;5074047;28;20341;-71
2023/05/16 11:13:02;;;;;;;;;;;;;;;16.88;100.00;97521.13;5076751;28;19936;-72
2023/05/16 11:15:31;;;;;;;;;;;;;;;16.95;100.00;97516.09;5075283;28;19931;-72
2023/05/16 11:18:05;;;;;;;;;;;;;;;17.01;100.00;97511.34;5075824;28;19932;-72
2023/05/16 11:20:33;;;;;;;;;;;;;;;17.02;100.00;97518.31;5076358;28;19924;-72
2023/05/16 11:23:18;;;;;;;;;;;;;;;17.04;100.00;97511.50;5079451;28;19971;-72
2023/05/16 11:25:45;;;;;;;;;;;;;;;16.98;100.00;97506.56;5078933;28;19929;-72
2023/05/16 11:28:13;;;;;;;;;;;;;;;17.03;100.00;97501.00;5077208;28;19992;-73
2023/05/16 11:30:42;;;;;;;;;;;;;;;17.05;100.00;97507.69;5085249;28;19924;-73
2023/05/16 11:33:09;;;;;;;;;;;;;;;17.06;100.00;97500.38;5072675;28;19924;-72
2023/05/16 11:35:35;;;;;;;;;;;;;;;17.04;100.00;97498.00;5076034;28;20606;-72
2023/05/16 11:38:02;;;;;;;;;;;;;;;17.04;100.00;97495.31;5082129;28;19920;-71
2023/05/16 11:40:28;;;;;;;;;;;;;;;17.03;100.00;97492.91;5074731;28;19997;-72
2023/05/16 11:42:56;;;;;;;;;;;;;;;17.07;100.00;97499.28;5077847;28;19932;-72
2023/05/16 11:45:24;;;;;;;;;;;;;;;17.18;100.00;97503.25;5075829;28;19936;-72
2023/05/16 11:47:50;;;;;;;;;;;;;;;17.08;100.00;97508.97;5075661;28;19947;-72
2023/05/16 11:50:17;;;;;;;;;;;;;;;17.09;100.00;97508.66;5081047;28;19979;-71
2023/05/16 11:52:45;;;;;;;;;;;;;;;16.93;100.00;97509.41;5076324;28;20015;-71
2023/05/16 11:55:11;;;;;;;;;;;;;;;16.74;100.00;97512.38;5073060;28;19920;-71
2023/05/16 11:57:38;;;;;;;;;;;;;;;16.64;100.00;97515.34;5072369;28;20008;-71
2023/05/16 12:00:06;;;;;;;;;;;;;;;16.45;100.00;97512.06;5075496;28;20098;-72
2023/05/16 12:02:34;;;;;;;;;;;;;;;16.29;100.00;97505.47;5074447;28;19925;-72
2023/05/16 12:05:08;;;;;;;;;;;;;;;16.13;100.00;97513.13;5071510;28;19931;-72
2023/05/16 12:07:34;;;;;;;;;;;;;;;16.32;100.00;97508.34;5075558;28;19951;-72
2023/05/16 12:10:04;;;;;;;;;;;;;;;16.41;100.00;97514.56;5075549;28;19947;-72
2023/05/16 12:12:30;;;;;;;;;;;;;;;16.34;100.00;97521.50;5074177;28;19924;-71
2023/05/16 12:14:57;;;;;;;;;;;;;;;16.52;100.00;97505.13;5073597;28;19925;-71
2023/05/16 12:17:24;;;;;;;;;;;;;;;16.57;100.00;97509.59;5067113;28;19958;-72
2023/05/16 12:19:52;;;;;;;;;;;;;;;16.58;100.00;97513.88;5071574;28;20054;-71
2023/05/16 12:22:19;;;;;;;;;;;;;;;16.68;100.00;97519.78;5072963;28;19951;-71
2023/05/16 12:24:46;;;;;;;;;;;;;;;16.81;100.00;97522.69;5074929;28;19928;-72
2023/05/16 12:27:12;;;;;;;;;;;;;;;16.92;100.00;97524.81;5080095;28;19928;-71
2023/05/16 12:29:38;;;;;;;;;;;;;;;16.98;100.00;97523.56;5080549;28;19991;-72
2023/05/16 12:32:07;;;;;;;;;;;;;;;17.01;100.00;97514.84;5073060;28;19980;-71
2023/05/16 12:34:33;;;;;;;;;;;;;;;17.00;100.00;97512.44;5075699;28;19925;-71
2023/05/16 12:37:01;;;;;;;;;;;;;;;17.01;100.00;97514.03;5075601;28;19936;-71